createdAt,value
2023-04-27T00:01:16.641Z,83.37
2023-04-27T00:03:44.883Z,87.37
2023-04-27T00:06:11.914Z,85.55
2023-04-27T00:08:38.736Z,83.54
2023-04-27T00:11:05.633Z,86.11
2023-04-27T00:13:32.480Z,88.16
2023-04-27T00:16:00.773Z,86.83
2023-04-27T00:18:27.610Z,88.18
2023-04-27T00:20:55.720Z,87.95
2023-04-27T00:23:22.581Z,85.48
2023-04-27T00:25:49.381Z,85.93
2023-04-27T00:28:16.172Z,84.75
2023-04-27T00:30:43.011Z,86.74
2023-04-27T00:33:09.718Z,86.98
2023-04-27T00:35:36.531Z,86.82
2023-04-27T00:38:04.643Z,91.53
2023-04-27T00:40:31.512Z,89.14
2023-04-27T00:42:58.257Z,86.90
2023-04-27T00:45:25.041Z,88.00
2023-04-27T00:47:52.282Z,89.77
2023-04-27T00:50:27.313Z,90.98
2023-04-27T00:52:54.411Z,89.75
2023-04-27T00:55:22.746Z,90.14
2023-04-27T00:57:49.686Z,89.26
2023-04-27T01:00:16.604Z,88.41
2023-04-27T01:02:43.800Z,92.75
2023-04-27T01:05:11.199Z,94.34
2023-04-27T01:07:38.658Z,94.92
2023-04-27T01:10:06.555Z,95.12
2023-04-27T01:12:34.767Z,94.11
2023-04-27T01:15:01.608Z,93.69
2023-04-27T01:17:28.426Z,92.60
2023-04-27T01:19:55.232Z,90.81
2023-04-27T01:22:22.107Z,92.24
2023-04-27T01:24:50.248Z,90.48
2023-04-27T01:27:17.021Z,92.97
2023-04-27T01:29:43.893Z,90.03
2023-04-27T01:32:10.633Z,89.44
2023-04-27T01:34:37.420Z,88.97
2023-04-27T01:37:04.695Z,91.36
2023-04-27T01:39:31.447Z,89.42
2023-04-27T01:41:59.583Z,89.42
2023-04-27T01:44:26.340Z,89.45
2023-04-27T01:46:53.219Z,89.79
2023-04-27T01:49:19.938Z,90.92
2023-04-27T01:51:46.778Z,91.94
2023-04-27T01:54:13.551Z,92.74
2023-04-27T01:56:40.289Z,92.82
2023-04-27T01:59:08.612Z,92.83
2023-04-27T02:01:35.535Z,93.37
2023-04-27T02:04:02.697Z,94.84
2023-04-27T02:06:29.636Z,94.70
2023-04-27T02:08:56.378Z,98.32
2023-04-27T02:11:23.113Z,95.86
2023-04-27T02:13:49.873Z,95.00
2023-04-27T02:16:18.056Z,94.63
2023-04-27T02:18:44.907Z,94.91
2023-04-27T02:21:11.676Z,94.64
2023-04-27T02:23:38.569Z,95.54
2023-04-27T02:26:05.603Z,95.74
2023-04-27T02:28:32.372Z,95.17
2023-04-27T02:30:59.615Z,94.99
2023-04-27T02:33:27.808Z,94.03
2023-04-27T02:35:54.572Z,94.55
2023-04-27T02:38:21.316Z,95.94
2023-04-27T02:40:53.472Z,95.62
2023-04-27T02:43:20.352Z,95.02
2023-04-27T02:45:47.386Z,94.49
2023-04-27T02:48:14.476Z,94.19
2023-04-27T02:50:43.234Z,94.13
2023-04-27T02:53:10.635Z,93.11
2023-04-27T02:55:37.385Z,94.21
2023-04-27T02:58:04.470Z,92.73
2023-04-27T03:00:31.239Z,94.19
2023-04-27T03:02:58.099Z,93.51
2023-04-27T03:05:26.203Z,93.87
2023-04-27T03:07:54.444Z,94.89
2023-04-27T03:10:21.289Z,95.41
2023-04-27T03:12:48.044Z,95.98
2023-04-27T03:15:14.871Z,94.83
2023-04-27T03:17:41.640Z,94.43
2023-04-27T03:20:09.416Z,94.67
2023-04-27T03:22:36.262Z,94.19
2023-04-27T03:25:05.205Z,95.28
2023-04-27T03:27:31.964Z,98.38
2023-04-27T03:29:58.794Z,99.27
2023-04-27T03:32:25.773Z,99.06
2023-04-27T03:34:52.639Z,98.33
2023-04-27T03:37:19.438Z,96.38
2023-04-27T03:39:46.173Z,96.52
2023-04-27T03:42:14.343Z,96.67
2023-04-27T03:44:41.103Z,95.77
2023-04-27T03:47:07.937Z,95.75
2023-04-27T03:49:34.784Z,96.71
2023-04-27T03:52:01.565Z,100.00
2023-04-27T03:54:28.329Z,100.00
2023-04-27T03:56:55.755Z,100.00
2023-04-27T03:59:24.321Z,99.06
2023-04-27T04:01:51.127Z,98.65
2023-04-27T04:04:18.006Z,98.84
2023-04-27T04:06:45.168Z,99.20
2023-04-27T04:09:12.197Z,100.00
2023-04-27T04:11:39.256Z,100.00
2023-04-27T04:14:06.212Z,100.00
2023-04-27T04:16:34.834Z,100.00
2023-04-27T04:19:01.692Z,100.00
2023-04-27T04:21:28.767Z,99.92
2023-04-27T04:23:55.584Z,99.78
2023-04-27T04:26:22.421Z,100.00
2023-04-27T04:28:49.677Z,100.00
2023-04-27T04:31:16.516Z,100.00
2023-04-27T04:33:44.735Z,100.00
2023-04-27T04:36:11.576Z,100.00
2023-04-27T04:38:38.440Z,100.00
2023-04-27T04:41:05.329Z,100.00
2023-04-27T04:43:33.317Z,100.00
2023-04-27T04:46:00.054Z,100.00
2023-04-27T04:48:26.940Z,100.00
2023-04-27T04:50:55.048Z,100.00
2023-04-27T04:53:21.854Z,100.00
2023-04-27T04:55:48.576Z,100.00
2023-04-27T04:58:15.400Z,100.00
2023-04-27T05:00:42.206Z,100.00
2023-04-27T05:03:09.178Z,100.00
2023-04-27T05:05:37.512Z,100.00
2023-04-27T05:08:08.486Z,100.00
2023-04-27T05:10:35.468Z,100.00
2023-04-27T05:13:02.253Z,100.00
2023-04-27T05:15:29.007Z,100.00
2023-04-27T05:17:55.851Z,100.00
2023-04-27T05:20:22.753Z,100.00
2023-04-27T05:22:49.740Z,100.00
2023-04-27T05:25:18.047Z,100.00
2023-04-27T05:27:44.966Z,100.00
2023-04-27T05:30:13.230Z,100.00
2023-04-27T05:32:40.006Z,100.00
2023-04-27T05:35:07.837Z,100.00
2023-04-27T05:37:34.688Z,100.00
2023-04-27T05:40:01.649Z,100.00
2023-04-27T05:42:29.784Z,100.00
2023-04-27T05:44:56.529Z,100.00
2023-04-27T05:47:23.817Z,100.00
2023-04-27T05:49:51.226Z,100.00
2023-04-27T05:52:18.024Z,100.00
2023-04-27T05:54:46.842Z,100.00
2023-04-27T05:57:13.692Z,100.00
2023-04-27T05:59:42.064Z,99.38
2023-04-27T06:02:10.361Z,98.29
2023-04-27T06:04:37.308Z,98.46
2023-04-27T06:07:08.182Z,98.42
2023-04-27T06:09:35.119Z,98.66
2023-04-27T06:12:02.533Z,96.92
2023-04-27T06:14:32.218Z,95.28
2023-04-27T06:17:00.480Z,93.88
2023-04-27T06:19:27.324Z,92.51
2023-04-27T06:21:54.420Z,89.67
2023-04-27T06:24:21.520Z,89.84
2023-04-27T06:26:51.190Z,87.85
2023-04-27T06:29:17.945Z,84.68
2023-04-27T06:31:44.750Z,83.46
2023-04-27T06:34:13.108Z,82.09
2023-04-27T06:36:39.870Z,80.54
2023-04-27T06:39:06.716Z,81.41
2023-04-27T06:41:33.516Z,80.75
2023-04-27T06:44:00.396Z,82.37
2023-04-27T06:46:27.514Z,81.39
2023-04-27T06:48:54.359Z,80.70
2023-04-27T06:51:22.590Z,81.55
2023-04-27T06:53:50.088Z,80.09
2023-04-27T06:56:17.116Z,81.47
2023-04-27T06:58:43.877Z,82.04
2023-04-27T07:01:10.736Z,80.04
2023-04-27T07:03:37.710Z,78.01
2023-04-27T07:06:04.868Z,80.52
2023-04-27T07:08:33.669Z,80.09
2023-04-27T07:11:00.426Z,81.06
2023-04-27T07:13:29.620Z,78.85
2023-04-27T07:15:57.064Z,78.48
2023-04-27T07:18:24.108Z,77.28
2023-04-27T07:20:51.073Z,78.32
2023-04-27T07:23:18.252Z,79.02
2023-04-27T07:25:46.706Z,80.30
2023-04-27T07:28:13.550Z,78.35
2023-04-27T07:30:40.410Z,77.76
2023-04-27T07:33:07.469Z,78.54
2023-04-27T07:35:34.426Z,79.84
2023-04-27T07:38:01.272Z,80.44
2023-04-27T07:40:28.137Z,79.78
2023-04-27T07:42:57.377Z,78.75
2023-04-27T07:45:24.547Z,77.83
2023-04-27T07:47:51.480Z,76.32
2023-04-27T07:50:19.067Z,77.03
2023-04-27T07:52:45.795Z,76.96
2023-04-27T07:55:12.686Z,76.83
2023-04-27T07:57:39.485Z,76.34
2023-04-27T08:00:08.983Z,75.04
2023-04-27T08:02:36.087Z,75.19
2023-04-27T08:05:03.680Z,75.26
2023-04-27T08:07:31.134Z,72.67
2023-04-27T08:09:58.018Z,71.84
2023-04-27T08:12:24.829Z,71.64
2023-04-27T08:14:51.744Z,67.26
2023-04-27T08:17:20.108Z,65.77
2023-04-27T08:19:47.064Z,65.22
2023-04-27T08:22:13.934Z,64.97
2023-04-27T08:24:40.736Z,63.87
2023-04-27T08:27:07.656Z,63.66
2023-04-27T08:29:34.815Z,63.76
2023-04-27T08:32:03.342Z,63.70
2023-04-27T08:34:31.820Z,63.06
2023-04-27T08:36:58.656Z,61.60
2023-04-27T08:39:25.609Z,60.00
2023-04-27T08:41:52.398Z,60.56
2023-04-27T08:44:19.354Z,64.09
2023-04-27T08:46:46.203Z,60.12
2023-04-27T08:49:15.137Z,57.45
2023-04-27T08:51:44.992Z,55.72
2023-04-27T08:54:11.863Z,53.84
2023-04-27T08:56:39.309Z,50.73
2023-04-27T08:59:16.533Z,51.33
2023-04-27T09:01:44.733Z,53.50
2023-04-27T09:04:11.816Z,52.37
2023-04-27T09:06:38.706Z,52.61
2023-04-27T09:09:07.083Z,53.00
2023-04-27T09:11:36.030Z,53.57
2023-04-27T09:14:14.863Z,52.09
2023-04-27T09:16:43.131Z,53.10
2023-04-27T09:19:10.664Z,53.21
2023-04-27T09:21:37.933Z,51.06
2023-04-27T09:24:13.721Z,50.17
2023-04-27T09:26:40.605Z,54.10
2023-04-27T09:29:07.483Z,50.04
2023-04-27T09:31:35.553Z,51.99
2023-04-27T09:34:02.818Z,49.99
2023-04-27T09:36:30.889Z,47.88
2023-04-27T09:38:58.862Z,46.10
2023-04-27T09:41:27.463Z,48.57
2023-04-27T09:43:57.551Z,48.19
2023-04-27T09:46:26.056Z,46.76
2023-04-27T09:48:54.334Z,46.74
2023-04-27T09:51:21.098Z,45.03
2023-04-27T09:53:52.864Z,46.13
2023-04-27T09:56:33.192Z,47.31
2023-04-27T09:59:17.333Z,44.46
2023-04-27T10:01:48.052Z,43.80
2023-04-27T10:04:35.329Z,44.26
2023-04-27T10:07:04.687Z,45.44
2023-04-27T10:09:36.481Z,44.05
2023-04-27T10:12:20.190Z,45.63
2023-04-27T10:14:51.761Z,44.83
2023-04-27T10:17:18.830Z,47.56
2023-04-27T10:19:58.252Z,47.22
2023-04-27T10:22:38.010Z,47.57
2023-04-27T10:25:14.038Z,47.60
2023-04-27T10:27:42.359Z,46.24
2023-04-27T10:30:10.983Z,47.16
2023-04-27T10:32:37.946Z,45.48
2023-04-27T10:35:08.594Z,47.52
2023-04-27T10:37:39.444Z,44.22
2023-04-27T10:40:08.934Z,46.34
2023-04-27T10:42:36.786Z,44.25
2023-04-27T10:45:06.529Z,45.07
2023-04-27T10:47:38.386Z,44.68
2023-04-27T10:50:06.518Z,43.46
2023-04-27T10:52:33.503Z,41.78
2023-04-27T10:55:12.726Z,44.06
2023-04-27T10:57:46.480Z,43.18
2023-04-27T11:00:16.624Z,42.36
2023-04-27T11:02:43.611Z,41.81
2023-04-27T11:05:17.897Z,40.63
2023-04-27T11:07:44.941Z,40.66
2023-04-27T11:10:16.107Z,40.56
2023-04-27T11:12:42.982Z,41.23
2023-04-27T11:15:10.637Z,42.73
2023-04-27T11:17:39.347Z,40.04
2023-04-27T11:20:07.529Z,40.08
2023-04-27T11:22:34.684Z,41.17
2023-04-27T11:25:02.099Z,39.64
2023-04-27T11:27:36.983Z,40.59
2023-04-27T11:30:04.858Z,41.93
2023-04-27T11:32:31.890Z,45.12
2023-04-27T11:35:00.295Z,43.28
2023-04-27T11:37:28.507Z,42.91
2023-04-27T11:39:55.529Z,42.31
2023-04-27T11:42:23.755Z,45.67
2023-04-27T11:44:53.113Z,46.92
2023-04-27T11:47:20.072Z,44.61
2023-04-27T11:49:48.021Z,42.50
2023-04-27T11:52:16.545Z,42.52
2023-04-27T11:54:50.525Z,44.39
2023-04-27T11:57:17.354Z,40.80
2023-04-27T11:59:44.156Z,44.21
2023-04-27T12:02:11.081Z,42.49
2023-04-27T12:04:38.171Z,42.32
2023-04-27T12:07:05.091Z,42.67
2023-04-27T12:09:33.237Z,43.38
2023-04-27T12:12:00.175Z,42.50
2023-04-27T12:14:27.801Z,43.76
2023-04-27T12:16:54.574Z,41.05
2023-04-27T12:19:21.360Z,41.64
2023-04-27T12:21:48.387Z,43.59
2023-04-27T12:24:15.451Z,43.29
2023-04-27T12:26:43.893Z,42.37
2023-04-27T12:29:10.676Z,41.24
2023-04-27T12:31:37.649Z,40.62
2023-04-27T12:34:04.862Z,41.47
2023-04-27T12:36:31.809Z,43.98
2023-04-27T12:39:00.350Z,44.88
2023-04-27T12:41:27.406Z,41.42
2023-04-27T12:43:56.092Z,41.19
2023-04-27T12:46:22.997Z,42.52
2023-04-27T12:48:49.966Z,44.17
2023-04-27T12:51:16.826Z,43.82
2023-04-27T12:53:43.727Z,41.54
2023-04-27T12:56:10.688Z,43.08
2023-04-27T12:58:37.520Z,42.96
2023-04-27T13:01:05.871Z,44.66
2023-04-27T13:03:32.784Z,43.85
2023-04-27T13:05:59.700Z,43.50
2023-04-27T13:08:26.454Z,43.54
2023-04-27T13:10:53.429Z,42.65
2023-04-27T13:13:20.305Z,42.51
2023-04-27T13:15:47.213Z,42.05
2023-04-27T13:18:15.438Z,39.07
2023-04-27T13:20:42.350Z,39.42
2023-04-27T13:23:09.348Z,42.31
2023-04-27T13:25:36.089Z,44.21
2023-04-27T13:28:02.982Z,43.18
2023-04-27T13:30:30.572Z,43.59
2023-04-27T13:33:07.270Z,44.75
2023-04-27T13:35:43.863Z,46.22
2023-04-27T13:38:10.651Z,44.94
2023-04-27T13:40:37.446Z,46.22
2023-04-27T13:43:04.275Z,45.27
2023-04-27T13:45:31.089Z,45.45
2023-04-27T13:47:59.245Z,43.24
2023-04-27T13:50:26.109Z,42.37
2023-04-27T13:52:55.085Z,43.57
2023-04-27T13:55:21.905Z,43.64
2023-04-27T13:57:48.826Z,44.49
2023-04-27T14:00:16.254Z,43.65
2023-04-27T14:02:43.152Z,44.78
2023-04-27T14:05:10.334Z,46.29
2023-04-27T14:07:37.183Z,45.49
2023-04-27T14:10:06.593Z,45.59
2023-04-27T14:12:33.464Z,45.40
2023-04-27T14:15:00.231Z,48.14
2023-04-27T14:17:26.984Z,44.87
2023-04-27T14:19:53.855Z,41.75
2023-04-27T14:22:21.078Z,44.17
2023-04-27T14:24:47.966Z,45.27
2023-04-27T14:27:16.466Z,44.67
2023-04-27T14:29:43.188Z,43.24
2023-04-27T14:32:10.086Z,44.76
2023-04-27T14:34:36.920Z,46.87
2023-04-27T14:37:05.933Z,44.40
2023-04-27T14:39:32.782Z,41.59
2023-04-27T14:41:59.577Z,41.32
2023-04-27T14:44:27.910Z,43.03
2023-04-27T14:46:54.773Z,42.96
2023-04-27T14:49:21.551Z,41.39
2023-04-27T14:51:48.299Z,44.42
2023-04-27T14:54:15.147Z,44.22
2023-04-27T14:56:43.987Z,43.57
2023-04-27T14:59:10.801Z,46.07
2023-04-27T15:01:38.954Z,45.58
2023-04-27T15:04:06.402Z,45.54
2023-04-27T15:06:33.387Z,47.91
2023-04-27T15:09:00.188Z,47.05
2023-04-27T15:11:27.010Z,46.63
2023-04-27T15:13:53.814Z,46.12
2023-04-27T15:16:20.764Z,46.13
2023-04-27T15:18:49.052Z,46.07
2023-04-27T15:21:15.869Z,48.20
2023-04-27T15:23:42.749Z,48.60
2023-04-27T15:26:09.487Z,49.29
2023-04-27T15:28:36.261Z,48.59
2023-04-27T15:31:03.331Z,46.27
2023-04-27T15:33:30.286Z,46.38
2023-04-27T15:35:58.400Z,46.77
2023-04-27T15:38:25.179Z,46.70
2023-04-27T15:40:52.021Z,45.90
2023-04-27T15:43:18.880Z,47.36
2023-04-27T15:45:45.623Z,47.22
2023-04-27T15:48:12.515Z,47.61
2023-04-27T15:50:39.515Z,47.70
2023-04-27T15:53:07.886Z,46.30
2023-04-27T15:55:34.717Z,46.19
2023-04-27T15:58:01.490Z,46.82
2023-04-27T16:00:28.224Z,46.49
2023-04-27T16:02:55.241Z,47.60
2023-04-27T16:05:22.122Z,48.88
2023-04-27T16:07:48.962Z,47.66
2023-04-27T16:10:17.122Z,47.76
2023-04-27T16:12:43.871Z,47.99
2023-04-27T16:15:11.676Z,46.53
2023-04-27T16:17:39.097Z,47.68
2023-04-27T16:20:07.229Z,46.47
2023-04-27T16:22:34.706Z,47.54
2023-04-27T16:25:01.660Z,48.38
2023-04-27T16:27:29.857Z,48.33
2023-04-27T16:29:56.701Z,48.04
2023-04-27T16:32:23.694Z,46.02
2023-04-27T16:34:50.782Z,46.96
2023-04-27T16:37:17.540Z,46.25
2023-04-27T16:39:44.282Z,46.86
2023-04-27T16:42:11.095Z,45.02
2023-04-27T16:44:39.356Z,47.33
2023-04-27T16:47:06.200Z,48.92
2023-04-27T16:49:32.980Z,48.73
2023-04-27T16:51:59.732Z,49.31
2023-04-27T16:54:26.591Z,50.97
2023-04-27T16:56:55.079Z,50.20
2023-04-27T16:59:22.116Z,48.92
2023-04-27T17:01:50.442Z,48.80
2023-04-27T17:04:17.441Z,51.56
2023-04-27T17:06:44.244Z,52.03
2023-04-27T17:09:10.998Z,51.96
2023-04-27T17:11:37.868Z,53.12
2023-04-27T17:14:04.888Z,54.45
2023-04-27T17:16:31.963Z,56.04
2023-04-27T17:19:00.158Z,57.10
2023-04-27T17:21:26.920Z,57.74
2023-04-27T17:23:53.679Z,58.44
2023-04-27T17:26:20.510Z,59.11
2023-04-27T17:28:47.417Z,59.82
2023-04-27T17:31:14.331Z,63.01
2023-04-27T17:33:41.160Z,63.15
2023-04-27T17:36:09.669Z,62.95
2023-04-27T17:38:36.490Z,64.14
2023-04-27T17:41:03.369Z,65.14
2023-04-27T17:43:30.159Z,65.82
2023-04-27T17:45:56.894Z,68.15
2023-04-27T17:48:23.872Z,72.25
2023-04-27T17:50:50.749Z,72.33
2023-04-27T17:53:18.897Z,68.63
2023-04-27T17:55:45.641Z,68.09
2023-04-27T17:58:12.442Z,71.60
2023-04-27T18:00:39.389Z,70.85
2023-04-27T18:03:06.268Z,73.67
2023-04-27T18:05:33.273Z,75.86
2023-04-27T18:08:00.207Z,76.24
2023-04-27T18:10:30.514Z,77.26
2023-04-27T18:12:57.361Z,79.13
2023-04-27T18:15:24.102Z,80.42
2023-04-27T18:17:53.088Z,80.44
2023-04-27T18:20:23.391Z,81.59
2023-04-27T18:22:50.382Z,80.05
2023-04-27T18:25:17.404Z,79.83
2023-04-27T18:27:45.530Z,79.45
2023-04-27T18:30:12.837Z,81.02
2023-04-27T18:32:39.627Z,81.53
2023-04-27T18:35:07.088Z,82.74
2023-04-27T18:37:33.900Z,81.58
2023-04-27T18:40:00.732Z,83.65
2023-04-27T18:42:27.469Z,82.84
2023-04-27T18:44:55.670Z,84.64
2023-04-27T18:47:22.423Z,81.74
2023-04-27T18:49:49.226Z,80.40
2023-04-27T18:52:16.088Z,82.34
2023-04-27T18:54:42.852Z,80.75
2023-04-27T18:57:09.549Z,80.36
2023-04-27T18:59:37.914Z,82.66
2023-04-27T19:02:06.894Z,80.17
2023-04-27T19:04:33.937Z,82.27
2023-04-27T19:07:01.394Z,82.11
2023-04-27T19:09:28.178Z,82.94
2023-04-27T19:12:02.904Z,83.21
2023-04-27T19:14:30.920Z,82.53
2023-04-27T19:16:57.805Z,82.30
2023-04-27T19:19:26.031Z,83.18
2023-04-27T19:21:52.951Z,82.77
2023-04-27T19:24:19.718Z,81.56
2023-04-27T19:26:47.525Z,85.05
2023-04-27T19:29:14.548Z,85.78
2023-04-27T19:31:41.645Z,85.08
2023-04-27T19:34:08.584Z,86.41
2023-04-27T19:36:36.690Z,85.45
2023-04-27T19:39:03.817Z,87.11
2023-04-27T19:41:30.695Z,86.53
2023-04-27T19:43:57.437Z,86.82
2023-04-27T19:46:24.263Z,89.25
2023-04-27T19:48:53.014Z,86.23
2023-04-27T19:51:19.845Z,85.71
2023-04-27T19:53:48.050Z,87.27
2023-04-27T19:56:14.856Z,88.17
2023-04-27T19:58:41.697Z,88.49
2023-04-27T20:01:08.446Z,88.47
2023-04-27T20:03:35.409Z,88.94
2023-04-27T20:06:02.500Z,89.39
2023-04-27T20:08:29.694Z,90.77
2023-04-27T20:10:57.886Z,89.04
2023-04-27T20:13:24.722Z,90.91
2023-04-27T20:15:51.582Z,90.89
2023-04-27T20:18:18.746Z,91.17
2023-04-27T20:20:45.515Z,91.14
2023-04-27T20:23:12.236Z,90.42
2023-04-27T20:25:38.972Z,90.86
2023-04-27T20:28:07.128Z,91.28
2023-04-27T20:30:33.938Z,91.71
2023-04-27T20:33:00.794Z,92.18
2023-04-27T20:35:27.526Z,91.18
2023-04-27T20:37:54.382Z,92.28
2023-04-27T20:40:21.252Z,92.70
2023-04-27T20:42:48.059Z,92.96
2023-04-27T20:45:16.482Z,91.87
2023-04-27T20:47:43.297Z,91.67
2023-04-27T20:50:10.384Z,92.62
2023-04-27T20:52:37.135Z,91.14
2023-04-27T20:55:04.482Z,91.75
2023-04-27T20:57:31.252Z,90.73
2023-04-27T20:59:58.007Z,91.90
2023-04-27T21:02:26.248Z,90.88
2023-04-27T21:04:53.142Z,91.94
2023-04-27T21:07:19.967Z,92.34
2023-04-27T21:09:46.839Z,93.56
2023-04-27T21:12:13.604Z,94.28
2023-04-27T21:14:40.697Z,95.51
2023-04-27T21:17:07.581Z,94.64
2023-04-27T21:19:35.846Z,93.60
2023-04-27T21:22:02.681Z,92.21
2023-04-27T21:24:29.408Z,92.86
2023-04-27T21:26:56.256Z,92.25
2023-04-27T21:29:22.990Z,94.23
2023-04-27T21:31:49.870Z,95.05
2023-04-27T21:34:16.867Z,93.37
2023-04-27T21:36:45.090Z,93.59
2023-04-27T21:39:11.817Z,92.86
2023-04-27T21:41:38.634Z,93.79
2023-04-27T21:44:05.492Z,93.44
2023-04-27T21:46:32.316Z,94.01
2023-04-27T21:48:59.133Z,93.87
2023-04-27T21:51:25.896Z,94.24
2023-04-27T21:53:54.056Z,94.53
2023-04-27T21:56:20.924Z,93.86
2023-04-27T21:58:47.810Z,94.25
2023-04-27T22:01:14.633Z,93.60
2023-04-27T22:03:41.621Z,93.92
2023-04-27T22:06:08.486Z,94.69
2023-04-27T22:08:35.378Z,94.91
2023-04-27T22:11:03.574Z,96.00
2023-04-27T22:13:30.377Z,96.44
2023-04-27T22:15:57.292Z,96.29
2023-04-27T22:18:24.180Z,96.40
2023-04-27T22:20:50.970Z,97.25
2023-04-27T22:23:18.227Z,96.65
2023-04-27T22:25:45.274Z,96.34
2023-04-27T22:28:13.453Z,96.11
2023-04-27T22:30:40.617Z,95.93
2023-04-27T22:33:07.660Z,96.29
2023-04-27T22:35:35.117Z,97.02
2023-04-27T22:38:02.211Z,96.55
2023-04-27T22:40:29.017Z,97.22
2023-04-27T22:42:56.083Z,97.91
2023-04-27T22:45:24.280Z,97.91
2023-04-27T22:47:51.157Z,97.97
2023-04-27T22:50:18.158Z,97.63
2023-04-27T22:52:44.975Z,98.31
2023-04-27T22:55:12.876Z,98.34
2023-04-27T22:57:40.216Z,98.03
2023-04-27T23:00:08.201Z,98.09
2023-04-27T23:02:36.618Z,98.84
2023-04-27T23:05:03.573Z,99.03
2023-04-27T23:07:30.379Z,100.00
2023-04-27T23:09:57.137Z,100.00
2023-04-27T23:12:23.951Z,100.00
2023-04-27T23:14:50.673Z,100.00
2023-04-27T23:17:17.553Z,100.00
2023-04-27T23:19:45.705Z,100.00
2023-04-27T23:22:12.467Z,100.00
2023-04-27T23:24:39.212Z,100.00
2023-04-27T23:27:05.953Z,100.00
2023-04-27T23:29:32.745Z,100.00
2023-04-27T23:32:01.709Z,100.00
2023-04-27T23:34:28.516Z,100.00
2023-04-27T23:36:56.650Z,100.00
2023-04-27T23:39:23.461Z,100.00
2023-04-27T23:41:50.193Z,100.00
2023-04-27T23:44:17.199Z,100.00
2023-04-27T23:46:44.248Z,100.00
2023-04-27T23:49:11.095Z,100.00
2023-04-27T23:51:38.267Z,100.00
2023-04-27T23:54:06.402Z,100.00
2023-04-27T23:56:33.185Z,100.00
2023-04-27T23:58:59.920Z,100.00
